Klamath Falls Airport
KLMT : now visible

Airfield :











YOU CAN JOIN US ON...

 
LOGIN :

Register | Disclaimer

   EN    FR    IT 

 









Legend :    VFR   Marginal VFR   IFR   Intensive IFR   Very Intensive IFR
Visi :
Ceiling :
>= 8 km
>= 3000ft
5 to 8 km
1000 to 3000 ft
1500m to 5 km
500 to 1000 ft
800 to 1500m
200 to 500 ft
< 800m
< 200 ft
Symbols :   Thunderstorms  Fog  Heavy snow  Heavy precipitations  Wind > 20 kt






- Airport Elevation : 4095 ft
- IATA code : LMT


KLMT - Klamath Falls

CURRENT METAR :
  • 090853Z AUTO 00000KT 1/4SM R32/1200V1600FT FZFG VV002 M01/M02 A3017 RMK AO2 SLP227 I1002 I3003 T10111017 50004

EXPIRED METARs :
  • 090832Z AUTO 33003KT 1/4SM R32/1400V2000FT FZFG VV002 M02/M02 A3017 RMK AO2 I1001 T10171022
  • 090753Z AUTO 34006KT 1/4SM R32/1800V2000FT FZFG VV002 M01/M02 A3018 RMK AO2 SLP229 I1001 T10111017 400671017
  • 090732Z AUTO 35004KT 1/4SM R32/1600V1800FT FZFG VV001 M01/M02 A3017 RMK AO2 I1000 T10111017
  • 090719Z AUTO 33004KT 1/4SM R32/2000V2200FT FZFG VV002 M01/M01 A3018 RMK AO2 T10061011
  • 090653Z AUTO 34004KT 3/4SM R32/3000V4000FT BR VV002 M01/M01 A3017 RMK AO2 SLP227 I1000 T10061011

TAF KLMT
Valid from the 09 at 07:00 until the 10 at 06:00 UTC


090659Z 0907/1006 00000KT 1/4SM FZFG VV002
FM091700 00000KT 3SM BR BKN005
FM091900 VRB03KT P6SM FEW200
FM100500 00000KT 1/2SM FZFG OVC002



MET'MAP, your aeronautical weather chart ! - Copyright ORBIFLY December 2007 - Disclaimer

ORBIFLY MET'MAP TEAM :

Programming & Development : Alexandra Zaïnal
Concept & original design : Baudouin d'Aumeries
Assistance for programming : Marc-Olivier Méhu
Technical & hardware support : Manuel Goepfert

Contact : metmap@orbifly.com




SOURCES & CREDITS :

   NOAA       Earth
Advisory